Terminal Aerodrome Forecast
Issued by NWS

Home | Current Version | Previous Version | Text Only | Print | Product List | Glossary On
Versions: 1 2 3 4 5 6 7 8 9 10 11 12 13 14 15 16 17
000
FTUS44 KTSA 270924 AAA
TAFBVO
TAF AMD
KBVO 270924Z 2709/2806 VRB03KT P6SM VCTS FEW008 BKN050CB
     FM271000 36004KT P6SM VCSH SCT008 BKN012
     FM271100 35005KT P6SM BKN015
     FM271900 01007KT P6SM BKN025 BKN035
     FM272100 02006KT P6SM BKN035=

USA.gov is the U.S. government's official web portal to all federal, state and local government web resources and services.